createdAt,value
2019-06-08T00:02:08.335Z,68.26
2019-06-08T00:04:37.414Z,68.32
2019-06-08T00:07:06.506Z,68.54
2019-06-08T00:09:35.575Z,68.24
2019-06-08T00:12:04.679Z,68.28
2019-06-08T00:14:33.741Z,68.40
2019-06-08T00:17:02.866Z,68.50
2019-06-08T00:19:31.970Z,68.55
2019-06-08T00:22:01.043Z,68.77
2019-06-08T00:24:30.111Z,68.59
2019-06-08T00:26:59.216Z,68.50
2019-06-08T00:29:28.294Z,68.20
2019-06-08T00:31:57.386Z,68.26
2019-06-08T00:34:26.457Z,68.30
2019-06-08T00:36:55.570Z,68.46
2019-06-08T00:39:25.152Z,68.69
2019-06-08T00:41:54.315Z,68.62
2019-06-08T00:44:23.417Z,68.61
2019-06-08T00:46:52.485Z,68.69
2019-06-08T00:49:22.623Z,68.61
2019-06-08T00:51:51.868Z,68.71
2019-06-08T00:54:21.561Z,68.57
2019-06-08T00:56:50.769Z,68.77
2019-06-08T00:59:19.989Z,68.75
2019-06-08T01:01:49.054Z,68.69
2019-06-08T01:04:18.606Z,68.62
2019-06-08T01:06:47.804Z,68.59
2019-06-08T01:09:18.050Z,68.69
2019-06-08T01:11:47.261Z,68.92
2019-06-08T01:14:16.350Z,68.76
2019-06-08T01:16:45.426Z,69.05
2019-06-08T01:19:14.897Z,68.64
2019-06-08T01:21:44.005Z,68.70
2019-06-08T01:24:13.729Z,68.97
2019-06-08T01:26:42.824Z,69.22
2019-06-08T01:29:11.891Z,69.27
2019-06-08T01:31:40.994Z,68.95
2019-06-08T01:34:10.082Z,68.80
2019-06-08T01:36:39.186Z,69.01
2019-06-08T01:39:08.299Z,69.06
2019-06-08T01:41:37.377Z,69.15
2019-06-08T01:44:06.537Z,69.40
2019-06-08T01:46:35.615Z,69.55
2019-06-08T01:49:04.719Z,69.80
2019-06-08T01:51:33.792Z,69.84
2019-06-08T01:54:02.918Z,69.80
2019-06-08T01:56:33.313Z,69.90
2019-06-08T01:59:02.474Z,70.20
2019-06-08T02:01:31.962Z,70.32
2019-06-08T02:04:01.148Z,70.52
2019-06-08T02:06:30.462Z,70.69
2019-06-08T02:08:59.545Z,70.70
2019-06-08T02:11:28.885Z,70.71
2019-06-08T02:13:58.005Z,71.05
2019-06-08T02:16:27.383Z,71.43
2019-06-08T02:18:56.552Z,71.67
2019-06-08T02:21:26.729Z,71.69
2019-06-08T02:23:55.895Z,71.28
2019-06-08T02:26:27.047Z,71.30
2019-06-08T02:28:55.790Z,71.39
2019-06-08T02:31:24.878Z,71.38
2019-06-08T02:33:53.982Z,71.55
2019-06-08T02:36:23.061Z,71.36
2019-06-08T02:38:52.155Z,71.50
2019-06-08T02:41:21.229Z,71.36
2019-06-08T02:43:50.392Z,71.63
2019-06-08T02:46:19.466Z,71.46
2019-06-08T02:49:03.133Z,71.22
2019-06-08T02:51:20.593Z,70.73
2019-06-08T02:53:50.797Z,71.29
2019-06-08T02:56:21.537Z,71.81
2019-06-08T02:58:52.367Z,72.72
2019-06-08T03:01:23.139Z,73.33
2019-06-08T03:03:54.106Z,73.67
2019-06-08T03:06:23.177Z,73.59
2019-06-08T03:08:54.223Z,73.71
2019-06-08T03:11:24.193Z,73.70
2019-06-08T03:13:56.443Z,73.43
2019-06-08T03:16:25.539Z,73.67
2019-06-08T03:18:54.650Z,74.13
2019-06-08T03:21:23.763Z,74.14
2019-06-08T03:23:52.856Z,74.28
2019-06-08T03:26:21.929Z,74.51
2019-06-08T03:28:51.044Z,74.40
2019-06-08T03:31:20.132Z,74.49
2019-06-08T03:33:55.162Z,74.61
2019-06-08T03:36:19.961Z,74.88
2019-06-08T03:38:49.050Z,75.32
2019-06-08T03:41:18.040Z,75.49
2019-06-08T03:43:47.142Z,75.27
2019-06-08T03:46:16.237Z,75.12
2019-06-08T03:48:46.513Z,75.01
2019-06-08T03:51:15.673Z,74.63
2019-06-08T03:53:47.183Z,74.23
2019-06-08T03:56:15.580Z,74.73
2019-06-08T03:58:45.977Z,74.77
2019-06-08T04:01:15.492Z,74.60
2019-06-08T04:03:46.250Z,74.49
2019-06-08T04:06:15.556Z,74.29
2019-06-08T04:08:46.802Z,74.07
2019-06-08T04:11:15.444Z,73.78
2019-06-08T04:13:46.508Z,73.87
2019-06-08T04:16:15.347Z,73.72
2019-06-08T04:18:46.626Z,73.06
2019-06-08T04:21:15.254Z,73.22
2019-06-08T04:23:45.387Z,72.94
2019-06-08T04:26:15.153Z,72.37
2019-06-08T04:28:44.767Z,72.76
2019-06-08T04:31:14.507Z,72.65
2019-06-08T04:33:44.251Z,72.33
2019-06-08T04:36:13.567Z,71.73
2019-06-08T04:38:43.327Z,72.06
2019-06-08T04:41:12.529Z,71.92
2019-06-08T04:43:42.861Z,71.92
2019-06-08T04:46:12.545Z,72.10
2019-06-08T04:48:43.098Z,71.70
2019-06-08T04:51:12.448Z,72.28
2019-06-08T04:53:43.251Z,71.83
2019-06-08T04:56:12.371Z,71.38
2019-06-08T04:58:43.527Z,70.85
2019-06-08T05:01:12.291Z,70.44
2019-06-08T05:03:43.273Z,70.42
2019-06-08T05:06:12.210Z,70.66
2019-06-08T05:08:41.295Z,71.00
2019-06-08T05:11:11.762Z,71.17
2019-06-08T05:13:41.182Z,71.19
2019-06-08T05:16:10.352Z,71.14
2019-06-08T05:18:39.435Z,71.38
2019-06-08T05:21:08.518Z,71.39
2019-06-08T05:23:37.614Z,70.86
2019-06-08T05:26:06.727Z,70.93
2019-06-08T05:28:35.802Z,70.92
2019-06-08T05:31:04.898Z,71.15
2019-06-08T05:33:33.986Z,71.02
2019-06-08T05:36:03.102Z,71.02
2019-06-08T05:38:32.337Z,70.66
2019-06-08T05:41:01.439Z,70.32
2019-06-08T05:43:30.452Z,70.87
2019-06-08T05:45:59.559Z,70.61
2019-06-08T05:48:28.634Z,70.46
2019-06-08T05:51:03.905Z,69.65
2019-06-08T05:53:28.532Z,69.84
2019-06-08T05:55:57.557Z,69.65
2019-06-08T05:58:26.627Z,69.05
2019-06-08T06:00:55.779Z,69.29
2019-06-08T06:03:24.817Z,68.92
2019-06-08T06:05:53.920Z,68.41
2019-06-08T06:08:23.007Z,68.26
2019-06-08T06:10:52.326Z,68.56
2019-06-08T06:13:21.484Z,68.55
2019-06-08T06:15:51.735Z,68.46
2019-06-08T06:18:20.964Z,68.29
2019-06-08T06:20:51.358Z,68.32
2019-06-08T06:23:20.633Z,68.47
2019-06-08T06:25:49.738Z,67.76
2019-06-08T06:28:18.825Z,67.98
2019-06-08T06:30:48.418Z,68.21
2019-06-08T06:33:18.947Z,67.92
2019-06-08T06:35:48.069Z,67.58
2019-06-08T06:38:17.246Z,67.67
2019-06-08T06:40:46.477Z,67.92
2019-06-08T06:43:15.566Z,67.72
2019-06-08T06:45:45.984Z,67.48
2019-06-08T06:48:15.150Z,67.26
2019-06-08T06:50:44.387Z,67.30
2019-06-08T06:53:13.475Z,67.25
2019-06-08T06:55:42.855Z,67.16
2019-06-08T06:58:11.945Z,67.58
2019-06-08T07:00:41.036Z,67.65
2019-06-08T07:03:10.143Z,67.83
2019-06-08T07:05:42.239Z,66.88
2019-06-08T07:08:11.335Z,67.35
2019-06-08T07:10:40.419Z,67.66
2019-06-08T07:13:10.699Z,67.75
2019-06-08T07:15:41.682Z,67.41
2019-06-08T07:18:10.652Z,66.64
2019-06-08T07:20:39.737Z,66.90
2019-06-08T07:23:08.836Z,67.03
2019-06-08T07:25:37.943Z,66.71
2019-06-08T07:28:07.041Z,66.73
2019-06-08T07:30:36.130Z,66.39
2019-06-08T07:33:05.262Z,65.98
2019-06-08T07:35:34.513Z,65.77
2019-06-08T07:38:03.624Z,64.59
2019-06-08T07:40:32.604Z,64.58
2019-06-08T07:43:01.706Z,64.01
2019-06-08T07:45:30.681Z,63.03
2019-06-08T07:48:00.577Z,63.22
2019-06-08T07:50:29.852Z,63.19
2019-06-08T07:52:58.984Z,62.55
2019-06-08T07:55:28.057Z,61.95
2019-06-08T07:57:57.164Z,61.84
2019-06-08T08:00:26.241Z,61.50
2019-06-08T08:02:56.261Z,60.51
2019-06-08T08:05:25.411Z,59.92
2019-06-08T08:07:54.841Z,59.98
2019-06-08T08:10:23.894Z,59.11
2019-06-08T08:12:53.008Z,59.49
2019-06-08T08:15:22.144Z,58.52
2019-06-08T08:17:53.464Z,57.93
2019-06-08T08:20:22.192Z,57.93
2019-06-08T08:22:55.809Z,57.14
2019-06-08T08:25:22.139Z,57.45
2019-06-08T08:27:51.965Z,57.91
2019-06-08T08:30:21.810Z,56.46
2019-06-08T08:32:52.661Z,55.17
2019-06-08T08:35:21.714Z,54.04
2019-06-08T08:37:55.505Z,53.74
2019-06-08T08:40:21.597Z,54.27
2019-06-08T08:42:52.261Z,50.63
2019-06-08T08:45:21.490Z,50.30
2019-06-08T08:47:51.154Z,50.78
2019-06-08T08:50:21.358Z,49.43
2019-06-08T08:52:51.285Z,48.90
2019-06-08T08:55:21.397Z,48.40
2019-06-08T08:57:50.710Z,48.44
2019-06-08T09:00:21.233Z,48.75
2019-06-08T09:03:10.894Z,48.70
2019-06-08T09:05:21.191Z,48.39
2019-06-08T09:07:52.054Z,49.15
2019-06-08T09:10:21.111Z,49.28
2019-06-08T09:12:52.136Z,49.31
2019-06-08T09:15:22.231Z,49.47
2019-06-08T09:17:52.326Z,49.38
2019-06-08T09:20:22.053Z,48.51
2019-06-08T09:22:58.852Z,47.00
2019-06-08T09:25:21.958Z,45.24
2019-06-08T09:27:51.879Z,45.54
2019-06-08T09:30:21.917Z,45.83
2019-06-08T09:32:52.260Z,45.88
2019-06-08T09:35:21.608Z,46.11
2019-06-08T09:37:53.215Z,44.83
2019-06-08T09:40:21.697Z,45.20
2019-06-08T09:42:53.684Z,46.14
2019-06-08T09:45:21.713Z,45.89
2019-06-08T09:47:50.806Z,47.23
2019-06-08T09:50:20.115Z,46.98
2019-06-08T09:52:49.196Z,48.67
2019-06-08T09:55:18.418Z,46.03
2019-06-08T09:57:48.535Z,45.99
2019-06-08T10:00:21.481Z,45.06
2019-06-08T10:02:48.606Z,44.59
2019-06-08T10:05:18.538Z,45.08
2019-06-08T10:07:48.718Z,44.46
2019-06-08T10:10:18.299Z,38.51
2019-06-08T10:12:48.393Z,38.21
2019-06-08T10:15:18.151Z,38.57
2019-06-08T10:17:47.736Z,37.93
2019-06-08T10:20:18.394Z,37.87
2019-06-08T10:22:48.267Z,39.07
2019-06-08T10:25:18.659Z,40.10
2019-06-08T10:27:47.737Z,39.70
2019-06-08T10:30:18.364Z,37.17
2019-06-08T10:32:48.003Z,38.67
2019-06-08T10:35:20.970Z,39.77
2019-06-08T10:37:51.243Z,36.97
2019-06-08T10:40:20.934Z,36.77
2019-06-08T10:42:50.030Z,35.24
2019-06-08T10:45:19.244Z,35.35
2019-06-08T10:47:48.365Z,36.19
2019-06-08T10:50:19.140Z,36.52
2019-06-08T10:52:48.504Z,33.35
2019-06-08T10:58:49.535Z,32.88
2019-06-08T11:01:15.110Z,31.64
2019-06-08T11:03:44.290Z,32.47
2019-06-08T11:06:13.729Z,34.03
2019-06-08T11:08:42.954Z,32.42
2019-06-08T11:11:12.137Z,32.91
2019-06-08T11:13:41.221Z,33.06
2019-06-08T11:16:13.526Z,32.58
2019-06-08T11:18:41.097Z,31.70
2019-06-08T11:21:12.681Z,33.04
2019-06-08T11:23:41.634Z,33.44
2019-06-08T11:26:19.112Z,31.33
2019-06-08T11:28:41.662Z,31.75
2019-06-08T11:31:15.715Z,30.08
2019-06-08T11:33:41.573Z,29.17
2019-06-08T11:36:14.221Z,30.45
2019-06-08T11:38:41.494Z,29.77
2019-06-08T11:41:13.464Z,29.82
2019-06-08T11:43:41.467Z,30.88
2019-06-08T11:46:10.718Z,31.53
2019-06-08T11:48:41.534Z,31.42
2019-06-08T11:51:13.010Z,29.45
2019-06-08T11:53:41.462Z,30.59
2019-06-08T11:56:13.116Z,29.33
2019-06-08T11:58:42.695Z,29.35
2019-06-08T12:01:14.708Z,30.12
2019-06-08T12:03:42.647Z,30.12
2019-06-08T12:06:14.123Z,29.59
2019-06-08T12:08:42.537Z,28.63
2019-06-08T12:11:17.186Z,28.55
2019-06-08T12:13:42.439Z,28.99
2019-06-08T12:16:15.879Z,29.02
2019-06-08T12:18:42.371Z,28.39
2019-06-08T12:21:13.026Z,29.23
2019-06-08T12:23:42.285Z,29.03
2019-06-08T12:26:12.267Z,28.60
2019-06-08T12:28:41.437Z,27.73
2019-06-08T12:31:16.810Z,27.96
2019-06-08T12:33:41.340Z,29.97
2019-06-08T12:36:13.567Z,29.62
2019-06-08T12:38:41.356Z,27.91
2019-06-08T12:41:12.286Z,28.18
2019-06-08T12:43:41.299Z,27.22
2019-06-08T12:46:12.582Z,28.42
2019-06-08T12:48:41.357Z,27.02
2019-06-08T12:51:12.082Z,27.83
2019-06-08T12:53:41.267Z,27.21
2019-06-08T12:56:11.780Z,26.98
2019-06-08T12:58:41.185Z,26.87
2019-06-08T13:01:11.038Z,27.54
2019-06-08T13:03:40.583Z,28.03
2019-06-08T13:06:28.784Z,28.58
2019-06-08T13:08:57.931Z,28.25
2019-06-08T13:11:28.323Z,27.77
2019-06-08T13:13:57.469Z,26.16
2019-06-08T13:16:28.408Z,26.92
2019-06-08T13:18:58.744Z,26.76
2019-06-08T13:21:34.498Z,27.33
2019-06-08T13:23:58.682Z,26.99
2019-06-08T13:26:30.926Z,27.39
2019-06-08T13:29:00.568Z,27.03
2019-06-08T13:31:29.398Z,26.76
2019-06-08T13:33:58.728Z,26.75
2019-06-08T13:36:29.690Z,27.10
2019-06-08T13:38:58.687Z,27.91
2019-06-08T13:41:29.894Z,26.03
2019-06-08T13:44:01.924Z,27.05
2019-06-08T13:46:31.001Z,27.18
2019-06-08T13:49:00.090Z,27.01
2019-06-08T13:51:29.493Z,27.58
2019-06-08T13:53:58.611Z,27.66
2019-06-08T13:56:28.423Z,28.37
2019-06-08T13:58:57.750Z,28.65
2019-06-08T14:01:30.456Z,28.09
2019-06-08T14:03:58.291Z,27.02
2019-06-08T14:06:28.415Z,26.19
2019-06-08T14:08:58.211Z,26.52
2019-06-08T14:11:28.085Z,26.33
2019-06-08T14:14:00.825Z,27.04
2019-06-08T14:16:29.682Z,26.32
2019-06-08T14:18:58.995Z,25.50
2019-06-08T14:21:37.415Z,25.42
2019-06-08T14:23:58.909Z,26.14
2019-06-08T14:26:27.995Z,26.84
2019-06-08T14:29:00.720Z,26.27
2019-06-08T14:31:31.568Z,26.69
2019-06-08T14:33:58.728Z,26.48
2019-06-08T14:36:29.088Z,26.66
2019-06-08T14:39:02.248Z,27.16
2019-06-08T14:41:31.533Z,27.37
2019-06-08T14:44:00.189Z,27.28
2019-06-08T14:46:30.390Z,27.15
2019-06-08T14:48:59.652Z,26.55
2019-06-08T14:51:48.010Z,27.15
2019-06-08T14:54:20.839Z,26.98
2019-06-08T14:56:48.533Z,26.63
2019-06-08T14:59:18.798Z,25.46
2019-06-08T15:01:49.132Z,25.71
2019-06-08T15:04:19.319Z,26.17
2019-06-08T15:06:49.164Z,25.98
2019-06-08T15:09:19.382Z,26.09
2019-06-08T15:11:48.579Z,26.67
2019-06-08T15:14:17.670Z,26.71
2019-06-08T15:16:49.180Z,26.82
2019-06-08T15:19:18.397Z,26.08
2019-06-08T15:21:48.433Z,26.19
2019-06-08T15:24:18.573Z,25.86
2019-06-08T15:26:48.774Z,25.80
2019-06-08T15:29:18.042Z,25.59
2019-06-08T15:31:48.213Z,25.82
2019-06-08T15:34:18.001Z,26.42
2019-06-08T15:36:47.583Z,26.93
2019-06-08T15:39:17.923Z,26.48
2019-06-08T15:41:48.822Z,26.69
2019-06-08T15:44:21.263Z,27.22
2019-06-08T15:46:48.822Z,26.74
2019-06-08T15:49:18.620Z,26.78
2019-06-08T15:51:48.172Z,26.91
2019-06-08T15:54:17.346Z,26.81
2019-06-08T15:56:51.339Z,26.35
2019-06-08T15:59:17.351Z,27.00
2019-06-08T16:01:46.466Z,27.35
2019-06-08T16:04:15.541Z,27.26
2019-06-08T16:06:44.673Z,27.73
2019-06-08T16:09:13.735Z,27.10
2019-06-08T16:11:42.829Z,27.06
2019-06-08T16:14:11.901Z,27.86
2019-06-08T16:16:41.004Z,27.81
2019-06-08T16:19:10.090Z,28.26
2019-06-08T16:21:39.191Z,27.69
2019-06-08T16:24:08.347Z,27.60
2019-06-08T16:26:52.218Z,28.32
2019-06-08T16:29:08.246Z,28.31
2019-06-08T16:31:37.329Z,28.72
2019-06-08T16:34:06.392Z,29.43
2019-06-08T16:36:35.644Z,29.26
2019-06-08T16:39:06.103Z,29.33
2019-06-08T16:41:36.130Z,30.01
2019-06-08T16:44:07.131Z,30.43
2019-06-08T16:46:36.551Z,30.66
2019-06-08T16:49:05.779Z,30.42
2019-06-08T16:51:35.779Z,30.64
2019-06-08T16:54:05.017Z,30.79
2019-06-08T16:56:34.249Z,29.69
2019-06-08T16:59:03.256Z,30.27
2019-06-08T17:01:32.915Z,30.18
2019-06-08T17:04:03.006Z,30.12
2019-06-08T17:06:33.203Z,30.56
2019-06-08T17:09:02.644Z,31.05
2019-06-08T17:11:31.870Z,30.88
2019-06-08T17:14:00.907Z,31.58
2019-06-08T17:16:30.098Z,30.94
2019-06-08T17:18:59.152Z,31.14
2019-06-08T17:21:28.270Z,31.48
2019-06-08T17:23:57.336Z,31.69
2019-06-08T17:26:26.434Z,32.06
2019-06-08T17:28:55.508Z,31.79
2019-06-08T17:31:24.723Z,31.88
2019-06-08T17:33:53.791Z,32.49
2019-06-08T17:36:22.922Z,32.26
2019-06-08T17:38:51.997Z,32.40
2019-06-08T17:41:21.103Z,32.69
2019-06-08T17:43:50.180Z,32.74
2019-06-08T17:46:19.284Z,33.04
2019-06-08T17:48:48.345Z,32.70
2019-06-08T17:51:17.450Z,32.80
2019-06-08T17:53:46.509Z,32.55
2019-06-08T17:56:15.579Z,32.83
2019-06-08T17:58:44.728Z,33.00
2019-06-08T18:01:13.824Z,33.14
2019-06-08T18:03:44.597Z,33.11
2019-06-08T18:06:13.901Z,32.66
2019-06-08T18:08:44.014Z,33.15
2019-06-08T18:11:13.711Z,32.75
2019-06-08T18:13:44.100Z,32.92
2019-06-08T18:16:13.685Z,32.68
2019-06-08T18:18:44.299Z,33.19
2019-06-08T18:21:13.552Z,32.92
2019-06-08T18:23:44.148Z,32.82
2019-06-08T18:26:13.363Z,32.97
2019-06-08T18:28:44.104Z,33.07
2019-06-08T18:31:13.246Z,33.03
2019-06-08T18:33:45.000Z,33.75
2019-06-08T18:36:13.129Z,33.98
2019-06-08T18:38:43.217Z,33.81
2019-06-08T18:41:13.011Z,33.71
2019-06-08T18:43:42.970Z,33.99
2019-06-08T18:46:12.906Z,34.44
2019-06-08T18:48:44.800Z,34.57
2019-06-08T18:51:17.356Z,34.61
2019-06-08T18:54:06.000Z,34.95
2019-06-08T18:56:18.271Z,35.40
2019-06-08T18:58:52.876Z,35.67
2019-06-08T19:01:22.053Z,36.30
2019-06-08T19:03:52.267Z,36.44
2019-06-08T19:06:20.685Z,36.50
2019-06-08T19:08:51.013Z,36.69
2019-06-08T19:11:20.053Z,37.19
2019-06-08T19:13:49.470Z,37.46
2019-06-08T19:16:18.551Z,37.45
2019-06-08T19:18:52.141Z,37.62
2019-06-08T19:21:18.357Z,38.07
2019-06-08T19:23:49.218Z,38.41
2019-06-08T19:26:18.243Z,38.63
2019-06-08T19:28:52.529Z,38.54
2019-06-08T19:31:18.056Z,38.72
2019-06-08T19:33:51.409Z,39.11
2019-06-08T19:36:18.115Z,39.48
2019-06-08T19:38:52.565Z,39.88
2019-06-08T19:41:17.923Z,40.09
2019-06-08T19:43:49.499Z,40.42
2019-06-08T19:46:18.197Z,40.70
2019-06-08T19:48:53.204Z,41.11
2019-06-08T19:51:18.152Z,41.30
2019-06-08T19:53:52.291Z,41.74
2019-06-08T19:56:21.193Z,42.10
2019-06-08T19:58:59.087Z,42.09
2019-06-08T20:01:19.673Z,42.04
2019-06-08T20:03:49.087Z,42.46
2019-06-08T20:06:20.235Z,42.65
2019-06-08T20:08:51.405Z,42.64
2019-06-08T20:11:19.798Z,42.83
2019-06-08T20:13:50.413Z,42.98
2019-06-08T20:16:19.830Z,43.17
2019-06-08T20:18:51.239Z,43.71
2019-06-08T20:21:19.942Z,43.90
2019-06-08T20:23:50.794Z,44.01
2019-06-08T20:26:19.766Z,43.76
2019-06-08T20:28:51.298Z,43.75
2019-06-08T20:31:19.665Z,44.10
2019-06-08T20:33:50.712Z,44.30
2019-06-08T20:36:19.482Z,44.45
2019-06-08T20:38:49.044Z,44.55
2019-06-08T20:41:18.400Z,44.66
2019-06-08T20:43:50.308Z,44.32
2019-06-08T20:46:20.389Z,44.58
2019-06-08T20:48:50.460Z,45.00
2019-06-08T20:51:19.852Z,45.43
2019-06-08T20:53:50.857Z,45.66
2019-06-08T20:56:19.720Z,45.68
2019-06-08T20:58:50.979Z,45.81
2019-06-08T21:01:19.625Z,46.13
2019-06-08T21:03:50.950Z,46.38
2019-06-08T21:06:19.532Z,46.54
2019-06-08T21:08:49.868Z,46.43
2019-06-08T21:11:19.412Z,46.65
2019-06-08T21:13:52.014Z,47.09
2019-06-08T21:16:19.298Z,47.50
2019-06-08T21:18:48.764Z,47.43
2019-06-08T21:21:17.961Z,47.58
2019-06-08T21:23:51.069Z,47.67
2019-06-08T21:26:18.385Z,47.80
2019-06-08T21:28:51.283Z,48.14
2019-06-08T21:31:18.314Z,48.42
2019-06-08T21:33:49.332Z,48.52
2019-06-08T21:36:18.311Z,48.66
2019-06-08T21:38:50.292Z,48.93
2019-06-08T21:41:18.092Z,49.32
2019-06-08T21:43:51.040Z,49.72
2019-06-08T21:46:17.980Z,49.87
2019-06-08T21:48:48.693Z,50.02
2019-06-08T21:51:17.814Z,50.06
2019-06-08T21:53:48.393Z,49.92
2019-06-08T21:56:18.220Z,50.20
2019-06-08T21:58:49.755Z,49.97
2019-06-08T22:01:18.808Z,50.11
2019-06-08T22:03:47.912Z,50.31
2019-06-08T22:06:17.697Z,50.38
2019-06-08T22:08:48.112Z,50.36
2019-06-08T22:11:17.758Z,50.47
2019-06-08T22:13:47.649Z,50.52
2019-06-08T22:16:16.970Z,50.73
2019-06-08T22:18:47.534Z,50.57
2019-06-08T22:21:18.129Z,50.45
2019-06-08T22:23:47.702Z,50.75
2019-06-08T22:26:17.802Z,50.85
2019-06-08T22:28:48.210Z,51.09
2019-06-08T22:31:17.719Z,51.39
2019-06-08T22:33:48.359Z,51.38
2019-06-08T22:36:18.838Z,51.49
2019-06-08T22:38:48.005Z,51.48
2019-06-08T22:41:17.452Z,51.15
2019-06-08T22:43:48.193Z,51.11
2019-06-08T22:46:17.909Z,51.15
2019-06-08T22:48:47.833Z,51.52
2019-06-08T22:51:18.741Z,51.62
2019-06-08T22:53:47.995Z,51.78
2019-06-08T22:56:18.327Z,51.80
2019-06-08T22:58:48.090Z,52.11
2019-06-08T23:01:18.450Z,52.12
2019-06-08T23:03:47.808Z,52.24
2019-06-08T23:06:17.656Z,52.18
2019-06-08T23:08:48.035Z,52.47
2019-06-08T23:11:18.049Z,52.74
2019-06-08T23:13:47.376Z,52.95
2019-06-08T23:16:18.200Z,52.95
2019-06-08T23:18:47.868Z,53.31
2019-06-08T23:21:18.047Z,53.36
2019-06-08T23:23:47.802Z,53.54
2019-06-08T23:26:18.319Z,53.59
2019-06-08T23:28:47.610Z,53.72
2019-06-08T23:31:24.911Z,53.82
2019-06-08T23:33:48.211Z,53.89
2019-06-08T23:38:48.299Z,54.22
2019-06-08T23:41:17.800Z,54.20
2019-06-08T23:43:48.042Z,54.29
2019-06-08T23:46:18.133Z,54.38
2019-06-08T23:48:48.416Z,54.68
2019-06-08T23:51:18.182Z,54.53
2019-06-08T23:53:47.769Z,54.73
2019-06-08T23:56:18.335Z,54.78
2019-06-08T23:58:48.254Z,54.82
